sensor_id;sensor_type;location;lat;lon;timestamp;P1;durP1;ratioP1;P2;durP2;ratioP2
15218;SDS011;15623;53.986;11.676;2022-09-02T00:00:50;1.47;;;1.10;;
15218;SDS011;15623;53.986;11.676;2022-09-02T00:03:18;1.00;;;1.00;;
15218;SDS011;15623;53.986;11.676;2022-09-02T00:05:45;2.20;;;0.90;;
15218;SDS011;15623;53.986;11.676;2022-09-02T00:08:13;1.00;;;1.00;;
15218;SDS011;15623;53.986;11.676;2022-09-02T00:10:41;0.90;;;0.90;;
15218;SDS011;15623;53.986;11.676;2022-09-02T00:13:09;1.10;;;1.10;;
15218;SDS011;15623;53.986;11.676;2022-09-02T00:15:38;1.30;;;1.20;;
15218;SDS011;15623;53.986;11.676;2022-09-02T00:18:06;1.00;;;1.00;;
15218;SDS011;15623;53.986;11.676;2022-09-02T00:20:37;0.90;;;0.90;;
15218;SDS011;15623;53.986;11.676;2022-09-02T00:23:04;1.17;;;1.10;;
15218;SDS011;15623;53.986;11.676;2022-09-02T00:25:32;1.10;;;1.10;;
15218;SDS011;15623;53.986;11.676;2022-09-02T00:27:59;1.03;;;1.00;;
15218;SDS011;15623;53.986;11.676;2022-09-02T00:30:27;0.90;;;0.90;;
15218;SDS011;15623;53.986;11.676;2022-09-02T00:32:55;0.83;;;0.83;;
15218;SDS011;15623;53.986;11.676;2022-09-02T00:35:23;0.87;;;0.87;;
15218;SDS011;15623;53.986;11.676;2022-09-02T00:37:50;0.90;;;0.90;;
15218;SDS011;15623;53.986;11.676;2022-09-02T00:40:17;0.87;;;0.87;;
15218;SDS011;15623;53.986;11.676;2022-09-02T00:42:45;1.20;;;1.10;;
15218;SDS011;15623;53.986;11.676;2022-09-02T00:45:12;0.90;;;0.90;;
15218;SDS011;15623;53.986;11.676;2022-09-02T00:47:39;1.33;;;0.87;;
15218;SDS011;15623;53.986;11.676;2022-09-02T00:50:09;1.20;;;1.10;;
15218;SDS011;15623;53.986;11.676;2022-09-02T00:52:38;1.37;;;1.00;;
15218;SDS011;15623;53.986;11.676;2022-09-02T00:55:07;1.03;;;0.93;;
15218;SDS011;15623;53.986;11.676;2022-09-02T00:57:37;0.93;;;0.93;;
15218;SDS011;15623;53.986;11.676;2022-09-02T01:00:07;1.20;;;1.10;;
15218;SDS011;15623;53.986;11.676;2022-09-02T01:02:36;0.93;;;0.93;;
15218;SDS011;15623;53.986;11.676;2022-09-02T01:05:06;1.47;;;1.10;;
15218;SDS011;15623;53.986;11.676;2022-09-02T01:07:36;1.20;;;1.10;;
15218;SDS011;15623;53.986;11.676;2022-09-02T01:10:04;1.07;;;0.97;;
15218;SDS011;15623;53.986;11.676;2022-09-02T01:12:32;1.30;;;1.20;;
15218;SDS011;15623;53.986;11.676;2022-09-02T01:15:00;1.03;;;1.00;;
15218;SDS011;15623;53.986;11.676;2022-09-02T01:17:28;1.00;;;0.90;;
15218;SDS011;15623;53.986;11.676;2022-09-02T01:20:00;1.20;;;1.20;;
15218;SDS011;15623;53.986;11.676;2022-09-02T01:22:30;1.17;;;1.00;;
15218;SDS011;15623;53.986;11.676;2022-09-02T01:25:02;1.00;;;1.00;;
15218;SDS011;15623;53.986;11.676;2022-09-02T01:27:30;1.10;;;1.00;;
15218;SDS011;15623;53.986;11.676;2022-09-02T01:29:58;1.23;;;1.20;;
15218;SDS011;15623;53.986;11.676;2022-09-02T01:32:27;1.17;;;1.17;;
15218;SDS011;15623;53.986;11.676;2022-09-02T01:34:54;1.23;;;1.13;;
15218;SDS011;15623;53.986;11.676;2022-09-02T01:37:23;1.23;;;1.10;;
15218;SDS011;15623;53.986;11.676;2022-09-02T01:39:52;1.20;;;1.10;;
15218;SDS011;15623;53.986;11.676;2022-09-02T01:42:21;0.90;;;0.90;;
15218;SDS011;15623;53.986;11.676;2022-09-02T01:44:48;0.93;;;0.93;;
15218;SDS011;15623;53.986;11.676;2022-09-02T01:47:17;0.83;;;0.83;;
15218;SDS011;15623;53.986;11.676;2022-09-02T01:49:45;1.33;;;1.20;;
15218;SDS011;15623;53.986;11.676;2022-09-02T01:52:12;1.00;;;1.00;;
15218;SDS011;15623;53.986;11.676;2022-09-02T01:54:40;1.77;;;1.00;;
15218;SDS011;15623;53.986;11.676;2022-09-02T01:57:10;1.00;;;0.90;;
15218;SDS011;15623;53.986;11.676;2022-09-02T01:59:38;0.93;;;0.93;;
15218;SDS011;15623;53.986;11.676;2022-09-02T02:02:07;0.90;;;0.90;;
15218;SDS011;15623;53.986;11.676;2022-09-02T02:04:35;0.93;;;0.93;;
15218;SDS011;15623;53.986;11.676;2022-09-02T02:07:02;1.50;;;1.20;;
15218;SDS011;15623;53.986;11.676;2022-09-02T02:09:30;1.10;;;1.10;;
15218;SDS011;15623;53.986;11.676;2022-09-02T02:11:57;1.90;;;1.20;;
15218;SDS011;15623;53.986;11.676;2022-09-02T02:14:26;1.07;;;1.07;;
15218;SDS011;15623;53.986;11.676;2022-09-02T02:16:53;1.37;;;1.00;;
15218;SDS011;15623;53.986;11.676;2022-09-02T02:19:20;1.53;;;1.27;;
15218;SDS011;15623;53.986;11.676;2022-09-02T02:21:48;1.13;;;1.13;;
15218;SDS011;15623;53.986;11.676;2022-09-02T02:24:15;1.53;;;1.10;;
15218;SDS011;15623;53.986;11.676;2022-09-02T02:26:43;1.07;;;1.07;;
15218;SDS011;15623;53.986;11.676;2022-09-02T02:29:11;1.23;;;1.13;;
15218;SDS011;15623;53.986;11.676;2022-09-02T02:31:40;1.20;;;1.20;;
15218;SDS011;15623;53.986;11.676;2022-09-02T02:34:08;1.10;;;1.10;;
15218;SDS011;15623;53.986;11.676;2022-09-02T02:36:36;1.13;;;1.13;;
15218;SDS011;15623;53.986;11.676;2022-09-02T02:39:04;1.20;;;1.20;;
15218;SDS011;15623;53.986;11.676;2022-09-02T02:41:32;1.27;;;1.17;;
15218;SDS011;15623;53.986;11.676;2022-09-02T02:43:59;1.27;;;1.17;;
15218;SDS011;15623;53.986;11.676;2022-09-02T02:46:26;1.30;;;1.20;;
15218;SDS011;15623;53.986;11.676;2022-09-02T02:48:57;1.30;;;1.20;;
15218;SDS011;15623;53.986;11.676;2022-09-02T02:51:25;1.67;;;1.17;;
15218;SDS011;15623;53.986;11.676;2022-09-02T02:53:52;1.20;;;1.10;;
15218;SDS011;15623;53.986;11.676;2022-09-02T02:56:19;1.63;;;1.30;;
15218;SDS011;15623;53.986;11.676;2022-09-02T02:58:47;1.40;;;1.30;;
15218;SDS011;15623;53.986;11.676;2022-09-02T03:01:14;1.47;;;1.10;;
15218;SDS011;15623;53.986;11.676;2022-09-02T03:03:41;1.00;;;1.00;;
15218;SDS011;15623;53.986;11.676;2022-09-02T03:06:10;1.10;;;1.10;;
15218;SDS011;15623;53.986;11.676;2022-09-02T03:08:37;2.07;;;1.20;;
15218;SDS011;15623;53.986;11.676;2022-09-02T03:11:05;1.27;;;1.17;;
15218;SDS011;15623;53.986;11.676;2022-09-02T03:13:33;1.30;;;1.30;;
15218;SDS011;15623;53.986;11.676;2022-09-02T03:16:00;1.87;;;1.20;;
15218;SDS011;15623;53.986;11.676;2022-09-02T03:18:27;1.20;;;1.10;;
15218;SDS011;15623;53.986;11.676;2022-09-02T03:20:55;1.13;;;1.10;;
15218;SDS011;15623;53.986;11.676;2022-09-02T03:23:23;1.07;;;1.07;;
15218;SDS011;15623;53.986;11.676;2022-09-02T03:25:51;1.23;;;0.90;;
15218;SDS011;15623;53.986;11.676;2022-09-02T03:28:18;1.20;;;1.10;;
15218;SDS011;15623;53.986;11.676;2022-09-02T03:30:45;1.90;;;1.50;;
15218;SDS011;15623;53.986;11.676;2022-09-02T03:33:13;1.37;;;1.23;;
15218;SDS011;15623;53.986;11.676;2022-09-02T03:35:40;1.77;;;1.37;;
15218;SDS011;15623;53.986;11.676;2022-09-02T03:38:09;1.30;;;1.30;;
15218;SDS011;15623;53.986;11.676;2022-09-02T03:40:38;1.50;;;1.20;;
15218;SDS011;15623;53.986;11.676;2022-09-02T03:43:05;1.30;;;1.20;;
15218;SDS011;15623;53.986;11.676;2022-09-02T03:45:33;2.37;;;1.33;;
15218;SDS011;15623;53.986;11.676;2022-09-02T03:48:00;1.33;;;1.30;;
15218;SDS011;15623;53.986;11.676;2022-09-02T03:50:29;1.50;;;1.33;;
15218;SDS011;15623;53.986;11.676;2022-09-02T03:52:57;1.33;;;1.23;;
15218;SDS011;15623;53.986;11.676;2022-09-02T03:55:24;1.40;;;1.30;;
15218;SDS011;15623;53.986;11.676;2022-09-02T03:57:53;1.57;;;1.30;;
15218;SDS011;15623;53.986;11.676;2022-09-02T04:00:21;1.30;;;1.20;;
15218;SDS011;15623;53.986;11.676;2022-09-02T04:02:49;2.30;;;1.20;;
15218;SDS011;15623;53.986;11.676;2022-09-02T04:05:18;1.43;;;1.33;;
15218;SDS011;15623;53.986;11.676;2022-09-02T04:07:46;2.40;;;1.53;;
15218;SDS011;15623;53.986;11.676;2022-09-02T04:10:15;1.10;;;1.00;;
15218;SDS011;15623;53.986;11.676;2022-09-02T04:12:42;1.37;;;1.30;;
15218;SDS011;15623;53.986;11.676;2022-09-02T04:15:11;1.40;;;1.30;;
15218;SDS011;15623;53.986;11.676;2022-09-02T04:17:39;1.47;;;1.37;;
15218;SDS011;15623;53.986;11.676;2022-09-02T04:20:07;1.37;;;1.27;;
15218;SDS011;15623;53.986;11.676;2022-09-02T04:22:35;1.80;;;1.20;;
15218;SDS011;15623;53.986;11.676;2022-09-02T04:25:02;1.47;;;1.37;;
15218;SDS011;15623;53.986;11.676;2022-09-02T04:27:30;1.20;;;1.20;;
15218;SDS011;15623;53.986;11.676;2022-09-02T04:29:57;3.23;;;1.40;;
15218;SDS011;15623;53.986;11.676;2022-09-02T04:32:31;1.60;;;1.50;;
15218;SDS011;15623;53.986;11.676;2022-09-02T04:34:58;1.13;;;1.13;;
15218;SDS011;15623;53.986;11.676;2022-09-02T04:37:26;2.20;;;1.13;;
15218;SDS011;15623;53.986;11.676;2022-09-02T04:39:53;1.33;;;1.20;;
15218;SDS011;15623;53.986;11.676;2022-09-02T04:42:22;1.40;;;1.30;;
15218;SDS011;15623;53.986;11.676;2022-09-02T04:44:50;1.30;;;1.20;;
15218;SDS011;15623;53.986;11.676;2022-09-02T04:47:18;0.97;;;0.97;;
15218;SDS011;15623;53.986;11.676;2022-09-02T04:49:47;2.00;;;1.47;;
15218;SDS011;15623;53.986;11.676;2022-09-02T04:52:20;0.87;;;0.87;;
15218;SDS011;15623;53.986;11.676;2022-09-02T04:54:51;0.90;;;0.90;;
15218;SDS011;15623;53.986;11.676;2022-09-02T04:57:20;1.20;;;1.10;;
15218;SDS011;15623;53.986;11.676;2022-09-02T04:59:52;4.40;;;1.10;;
15218;SDS011;15623;53.986;11.676;2022-09-02T05:02:23;3.23;;;1.00;;
15218;SDS011;15623;53.986;11.676;2022-09-02T05:07:41;0.90;;;0.90;;
15218;SDS011;15623;53.986;11.676;2022-09-02T05:10:09;1.10;;;1.00;;
15218;SDS011;15623;53.986;11.676;2022-09-02T05:12:41;2.33;;;1.07;;
15218;SDS011;15623;53.986;11.676;2022-09-02T05:15:09;1.37;;;1.10;;
15218;SDS011;15623;53.986;11.676;2022-09-02T05:17:38;1.20;;;1.03;;
15218;SDS011;15623;53.986;11.676;2022-09-02T05:20:09;1.23;;;1.23;;
15218;SDS011;15623;53.986;11.676;2022-09-02T05:22:42;0.97;;;0.90;;
15218;SDS011;15623;53.986;11.676;2022-09-02T05:25:10;0.97;;;0.97;;
15218;SDS011;15623;53.986;11.676;2022-09-02T05:27:37;2.30;;;1.27;;
15218;SDS011;15623;53.986;11.676;2022-09-02T05:30:05;1.20;;;1.20;;
15218;SDS011;15623;53.986;11.676;2022-09-02T05:32:34;1.30;;;1.20;;
15218;SDS011;15623;53.986;11.676;2022-09-02T05:35:02;1.27;;;1.27;;
15218;SDS011;15623;53.986;11.676;2022-09-02T06:32:25;0.80;;;0.80;;
15218;SDS011;15623;53.986;11.676;2022-09-02T06:34:57;2.80;;;0.77;;
15218;SDS011;15623;53.986;11.676;2022-09-02T06:40:22;0.70;;;0.60;;
15218;SDS011;15623;53.986;11.676;2022-09-02T06:42:51;1.48;;;0.77;;
15218;SDS011;15623;53.986;11.676;2022-09-02T06:45:55;4.25;;;0.80;;
15218;SDS011;15623;53.986;11.676;2022-09-02T06:48:41;1.42;;;0.70;;
15218;SDS011;15623;53.986;11.676;2022-09-02T06:51:15;0.70;;;0.70;;
15218;SDS011;15623;53.986;11.676;2022-09-02T06:59:58;0.60;;;0.60;;
15218;SDS011;15623;53.986;11.676;2022-09-02T07:08:47;0.65;;;0.65;;
15218;SDS011;15623;53.986;11.676;2022-09-02T07:11:28;0.70;;;0.70;;
15218;SDS011;15623;53.986;11.676;2022-09-02T07:13:56;1.17;;;0.68;;
15218;SDS011;15623;53.986;11.676;2022-09-02T07:16:41;3.38;;;0.90;;
15218;SDS011;15623;53.986;11.676;2022-09-02T07:19:12;0.57;;;0.57;;
15218;SDS011;15623;53.986;11.676;2022-09-02T07:21:45;3.33;;;0.80;;
15218;SDS011;15623;53.986;11.676;2022-09-02T07:24:24;1.23;;;0.40;;
15218;SDS011;15623;53.986;11.676;2022-09-02T07:26:52;1.38;;;1.00;;
15218;SDS011;15623;53.986;11.676;2022-09-02T07:32:31;3.65;;;0.70;;
15218;SDS011;15623;53.986;11.676;2022-09-02T07:38:15;0.85;;;0.82;;
15218;SDS011;15623;53.986;11.676;2022-09-02T07:40:45;0.70;;;0.68;;
15218;SDS011;15623;53.986;11.676;2022-09-02T07:43:17;0.82;;;0.70;;
15218;SDS011;15623;53.986;11.676;2022-09-02T07:45:59;1.08;;;0.68;;
15218;SDS011;15623;53.986;11.676;2022-09-02T08:00:20;0.68;;;0.68;;
15218;SDS011;15623;53.986;11.676;2022-09-02T08:12:00;0.60;;;0.60;;
15218;SDS011;15623;53.986;11.676;2022-09-02T08:20:37;1.35;;;0.60;;
15218;SDS011;15623;53.986;11.676;2022-09-02T08:23:08;0.77;;;0.63;;
15218;SDS011;15623;53.986;11.676;2022-09-02T08:31:38;0.98;;;0.70;;
15218;SDS011;15623;53.986;11.676;2022-09-02T09:04:24;0.80;;;0.80;;
15218;SDS011;15623;53.986;11.676;2022-09-02T09:15:01;0.50;;;0.40;;
15218;SDS011;15623;53.986;11.676;2022-09-02T09:32:47;1.17;;;0.60;;
15218;SDS011;15623;53.986;11.676;2022-09-02T09:38:26;0.70;;;0.60;;
15218;SDS011;15623;53.986;11.676;2022-09-02T09:44:05;4.05;;;3.75;;
15218;SDS011;15623;53.986;11.676;2022-09-02T09:52:46;1.80;;;1.70;;
15218;SDS011;15623;53.986;11.676;2022-09-02T09:55:23;0.50;;;0.50;;
15218;SDS011;15623;53.986;11.676;2022-09-02T10:02:57;0.50;;;0.50;;
15218;SDS011;15623;53.986;11.676;2022-09-02T10:05:41;1.08;;;0.63;;
15218;SDS011;15623;53.986;11.676;2022-09-02T10:08:22;0.98;;;0.60;;
15218;SDS011;15623;53.986;11.676;2022-09-02T10:11:18;0.95;;;0.38;;
15218;SDS011;15623;53.986;11.676;2022-09-02T10:14:34;0.50;;;0.50;;
15218;SDS011;15623;53.986;11.676;2022-09-02T10:20:37;1.02;;;0.60;;
15218;SDS011;15623;53.986;11.676;2022-09-02T10:23:11;0.70;;;0.70;;
15218;SDS011;15623;53.986;11.676;2022-09-02T10:31:06;0.90;;;0.50;;
15218;SDS011;15623;53.986;11.676;2022-09-02T10:45:30;0.60;;;0.60;;
15218;SDS011;15623;53.986;11.676;2022-09-02T11:06:06;0.98;;;0.50;;
15218;SDS011;15623;53.986;11.676;2022-09-02T11:08:59;0.50;;;0.50;;
15218;SDS011;15623;53.986;11.676;2022-09-02T11:17:58;0.60;;;0.60;;
15218;SDS011;15623;53.986;11.676;2022-09-02T11:53:22;0.82;;;0.60;;
15218;SDS011;15623;53.986;11.676;2022-09-02T12:42:18;2.97;;;0.98;;
15218;SDS011;15623;53.986;11.676;2022-09-02T13:01:56;0.63;;;0.60;;
15218;SDS011;15623;53.986;11.676;2022-09-02T13:28:42;0.55;;;0.55;;
15218;SDS011;15623;53.986;11.676;2022-09-02T13:31:19;0.40;;;0.40;;
15218;SDS011;15623;53.986;11.676;2022-09-02T13:33:54;1.95;;;0.68;;
15218;SDS011;15623;53.986;11.676;2022-09-02T14:06:53;0.60;;;0.60;;
15218;SDS011;15623;53.986;11.676;2022-09-02T14:09:36;0.82;;;0.82;;
15218;SDS011;15623;53.986;11.676;2022-09-02T14:12:24;0.90;;;0.70;;
15218;SDS011;15623;53.986;11.676;2022-09-02T14:15:11;2.95;;;0.70;;
15218;SDS011;15623;53.986;11.676;2022-09-02T14:17:39;0.68;;;0.57;;
15218;SDS011;15623;53.986;11.676;2022-09-02T14:20:21;0.68;;;0.60;;
15218;SDS011;15623;53.986;11.676;2022-09-02T14:25:55;0.60;;;0.60;;
15218;SDS011;15623;53.986;11.676;2022-09-02T14:28:24;1.60;;;0.70;;
15218;SDS011;15623;53.986;11.676;2022-09-02T14:31:00;1.45;;;0.70;;
15218;SDS011;15623;53.986;11.676;2022-09-02T14:33:42;0.82;;;0.52;;
15218;SDS011;15623;53.986;11.676;2022-09-02T14:36:30;1.88;;;0.70;;
15218;SDS011;15623;53.986;11.676;2022-09-02T14:39:14;1.08;;;0.77;;
15218;SDS011;15623;53.986;11.676;2022-09-02T14:41:55;0.63;;;0.60;;
15218;SDS011;15623;53.986;11.676;2022-09-02T14:44:28;1.08;;;0.63;;
15218;SDS011;15623;53.986;11.676;2022-09-02T14:47:13;1.90;;;0.80;;
15218;SDS011;15623;53.986;11.676;2022-09-02T14:49:44;0.55;;;0.52;;
15218;SDS011;15623;53.986;11.676;2022-09-02T14:52:15;0.70;;;0.70;;
15218;SDS011;15623;53.986;11.676;2022-09-02T14:54:43;0.70;;;0.70;;
15218;SDS011;15623;53.986;11.676;2022-09-02T15:00:23;1.67;;;0.70;;
15218;SDS011;15623;53.986;11.676;2022-09-02T15:03:11;1.15;;;0.50;;
15218;SDS011;15623;53.986;11.676;2022-09-02T15:06:00;1.05;;;0.70;;
15218;SDS011;15623;53.986;11.676;2022-09-02T15:08:27;0.85;;;0.60;;
15218;SDS011;15623;53.986;11.676;2022-09-02T15:10:57;0.57;;;0.50;;
15218;SDS011;15623;53.986;11.676;2022-09-02T15:19:21;1.27;;;0.50;;
15218;SDS011;15623;53.986;11.676;2022-09-02T15:21:49;0.70;;;0.70;;
15218;SDS011;15623;53.986;11.676;2022-09-02T15:24:24;2.38;;;0.70;;
15218;SDS011;15623;53.986;11.676;2022-09-02T15:26:52;2.47;;;0.70;;
15218;SDS011;15623;53.986;11.676;2022-09-02T15:31:50;0.80;;;0.80;;
15218;SDS011;15623;53.986;11.676;2022-09-02T15:34:19;0.90;;;0.63;;
15218;SDS011;15623;53.986;11.676;2022-09-02T15:36:53;1.05;;;0.68;;
15218;SDS011;15623;53.986;11.676;2022-09-02T15:39:26;1.50;;;0.70;;
15218;SDS011;15623;53.986;11.676;2022-09-02T15:42:01;1.95;;;0.60;;
15218;SDS011;15623;53.986;11.676;2022-09-02T15:44:43;0.60;;;0.50;;
15218;SDS011;15623;53.986;11.676;2022-09-02T15:47:26;1.55;;;0.70;;
15218;SDS011;15623;53.986;11.676;2022-09-02T15:50:06;0.60;;;0.60;;
15218;SDS011;15623;53.986;11.676;2022-09-02T15:55:42;0.50;;;0.50;;
15218;SDS011;15623;53.986;11.676;2022-09-02T15:58:10;1.45;;;0.50;;
15218;SDS011;15623;53.986;11.676;2022-09-02T16:00:54;0.63;;;0.63;;
15218;SDS011;15623;53.986;11.676;2022-09-02T16:03:47;0.77;;;0.68;;
15218;SDS011;15623;53.986;11.676;2022-09-02T16:06:31;0.80;;;0.52;;
15218;SDS011;15623;53.986;11.676;2022-09-02T16:09:25;0.50;;;0.50;;
15218;SDS011;15623;53.986;11.676;2022-09-02T16:11:54;1.90;;;0.80;;
15218;SDS011;15623;53.986;11.676;2022-09-02T16:14:32;1.33;;;1.08;;
15218;SDS011;15623;53.986;11.676;2022-09-02T16:17:03;0.85;;;0.85;;
15218;SDS011;15623;53.986;11.676;2022-09-02T16:19:32;1.67;;;0.60;;
15218;SDS011;15623;53.986;11.676;2022-09-02T16:22:09;4.90;;;0.93;;
15218;SDS011;15623;53.986;11.676;2022-09-02T16:24:50;0.70;;;0.70;;
15218;SDS011;15623;53.986;11.676;2022-09-02T16:27:19;2.50;;;1.05;;
15218;SDS011;15623;53.986;11.676;2022-09-02T16:30:01;3.17;;;0.70;;
15218;SDS011;15623;53.986;11.676;2022-09-02T16:32:28;0.63;;;0.63;;
15218;SDS011;15623;53.986;11.676;2022-09-02T16:34:57;0.80;;;0.80;;
15218;SDS011;15623;53.986;11.676;2022-09-02T16:37:28;0.80;;;0.80;;
15218;SDS011;15623;53.986;11.676;2022-09-02T16:40:15;0.80;;;0.80;;
15218;SDS011;15623;53.986;11.676;2022-09-02T16:42:49;1.55;;;0.85;;
15218;SDS011;15623;53.986;11.676;2022-09-02T16:45:19;0.65;;;0.65;;
15218;SDS011;15623;53.986;11.676;2022-09-02T16:47:46;0.95;;;0.80;;
15218;SDS011;15623;53.986;11.676;2022-09-02T16:50:23;1.35;;;0.68;;
15218;SDS011;15623;53.986;11.676;2022-09-02T16:52:57;0.73;;;0.73;;
15218;SDS011;15623;53.986;11.676;2022-09-02T16:55:25;2.58;;;0.90;;
15218;SDS011;15623;53.986;11.676;2022-09-02T16:57:54;3.08;;;0.85;;
15218;SDS011;15623;53.986;11.676;2022-09-02T17:00:22;0.75;;;0.75;;
15218;SDS011;15623;53.986;11.676;2022-09-02T17:02:49;0.85;;;0.60;;
15218;SDS011;15623;53.986;11.676;2022-09-02T17:05:31;1.20;;;0.73;;
15218;SDS011;15623;53.986;11.676;2022-09-02T17:11:18;1.63;;;0.90;;
15218;SDS011;15623;53.986;11.676;2022-09-02T17:13:57;0.65;;;0.65;;
15218;SDS011;15623;53.986;11.676;2022-09-02T17:16:28;2.22;;;0.80;;
15218;SDS011;15623;53.986;11.676;2022-09-02T17:18:55;0.98;;;0.80;;
15218;SDS011;15623;53.986;11.676;2022-09-02T17:21:26;2.08;;;1.10;;
15218;SDS011;15623;53.986;11.676;2022-09-02T17:24:01;2.78;;;0.80;;
15218;SDS011;15623;53.986;11.676;2022-09-02T17:26:53;0.80;;;0.80;;
15218;SDS011;15623;53.986;11.676;2022-09-02T17:32:03;0.85;;;0.80;;
15218;SDS011;15623;53.986;11.676;2022-09-02T17:34:31;1.13;;;0.73;;
15218;SDS011;15623;53.986;11.676;2022-09-02T17:36:58;1.25;;;0.85;;
15218;SDS011;15623;53.986;11.676;2022-09-02T17:39:25;1.55;;;0.93;;
15218;SDS011;15623;53.986;11.676;2022-09-02T17:41:53;2.38;;;1.00;;
15218;SDS011;15623;53.986;11.676;2022-09-02T17:44:19;2.30;;;0.90;;
15218;SDS011;15623;53.986;11.676;2022-09-02T17:46:47;1.10;;;0.90;;
15218;SDS011;15623;53.986;11.676;2022-09-02T17:49:16;1.13;;;0.90;;
15218;SDS011;15623;53.986;11.676;2022-09-02T17:51:46;1.65;;;1.00;;
15218;SDS011;15623;53.986;11.676;2022-09-02T17:54:14;0.88;;;0.88;;
15218;SDS011;15623;53.986;11.676;2022-09-02T17:59:50;0.80;;;0.80;;
15218;SDS011;15623;53.986;11.676;2022-09-02T18:02:28;1.90;;;1.30;;
15218;SDS011;15623;53.986;11.676;2022-09-02T18:05:01;1.38;;;1.10;;
15218;SDS011;15623;53.986;11.676;2022-09-02T18:07:30;1.50;;;1.20;;
15218;SDS011;15623;53.986;11.676;2022-09-02T18:10:01;1.70;;;1.00;;
15218;SDS011;15623;53.986;11.676;2022-09-02T18:12:29;1.10;;;1.00;;
15218;SDS011;15623;53.986;11.676;2022-09-02T18:14:56;2.95;;;1.00;;
15218;SDS011;15623;53.986;11.676;2022-09-02T18:17:26;5.32;;;1.85;;
15218;SDS011;15623;53.986;11.676;2022-09-02T18:20:01;2.05;;;1.30;;
15218;SDS011;15623;53.986;11.676;2022-09-02T18:22:41;2.72;;;1.20;;
15218;SDS011;15623;53.986;11.676;2022-09-02T18:25:13;1.45;;;1.20;;
15218;SDS011;15623;53.986;11.676;2022-09-02T18:27:47;1.13;;;1.10;;
15218;SDS011;15623;53.986;11.676;2022-09-02T18:30:17;1.15;;;1.15;;
15218;SDS011;15623;53.986;11.676;2022-09-02T18:33:05;1.77;;;1.40;;
15218;SDS011;15623;53.986;11.676;2022-09-02T18:35:38;4.13;;;1.52;;
15218;SDS011;15623;53.986;11.676;2022-09-02T18:38:11;2.58;;;1.33;;
15218;SDS011;15623;53.986;11.676;2022-09-02T18:40:40;2.50;;;1.40;;
15218;SDS011;15623;53.986;11.676;2022-09-02T18:43:12;1.80;;;1.30;;
15218;SDS011;15623;53.986;11.676;2022-09-02T18:45:42;1.67;;;1.30;;
15218;SDS011;15623;53.986;11.676;2022-09-02T18:48:14;1.20;;;1.20;;
15218;SDS011;15623;53.986;11.676;2022-09-02T18:50:45;1.60;;;1.23;;
15218;SDS011;15623;53.986;11.676;2022-09-02T18:53:14;4.95;;;4.55;;
15218;SDS011;15623;53.986;11.676;2022-09-02T18:55:44;13.25;;;10.98;;
15218;SDS011;15623;53.986;11.676;2022-09-02T18:58:13;14.15;;;12.13;;
15218;SDS011;15623;53.986;11.676;2022-09-02T19:00:44;4.82;;;4.45;;
15218;SDS011;15623;53.986;11.676;2022-09-02T19:03:14;4.05;;;3.63;;
15218;SDS011;15623;53.986;11.676;2022-09-02T19:05:42;9.13;;;8.23;;
15218;SDS011;15623;53.986;11.676;2022-09-02T19:08:10;15.98;;;12.63;;
15218;SDS011;15623;53.986;11.676;2022-09-02T19:11:01;2.00;;;1.90;;
15218;SDS011;15623;53.986;11.676;2022-09-02T19:13:29;1.65;;;1.55;;
15218;SDS011;15623;53.986;11.676;2022-09-02T19:16:04;3.42;;;1.20;;
15218;SDS011;15623;53.986;11.676;2022-09-02T19:18:34;2.72;;;0.90;;
15218;SDS011;15623;53.986;11.676;2022-09-02T19:21:02;1.15;;;1.00;;
15218;SDS011;15623;53.986;11.676;2022-09-02T19:23:31;1.33;;;1.00;;
15218;SDS011;15623;53.986;11.676;2022-09-02T19:26:12;1.30;;;1.20;;
15218;SDS011;15623;53.986;11.676;2022-09-02T19:28:42;1.50;;;1.30;;
15218;SDS011;15623;53.986;11.676;2022-09-02T19:34:13;1.02;;;1.00;;
15218;SDS011;15623;53.986;11.676;2022-09-02T19:36:44;2.13;;;1.17;;
15218;SDS011;15623;53.986;11.676;2022-09-02T19:59:51;1.40;;;1.30;;
15218;SDS011;15623;53.986;11.676;2022-09-02T20:02:19;1.45;;;1.30;;
15218;SDS011;15623;53.986;11.676;2022-09-02T20:04:47;1.42;;;1.10;;
15218;SDS011;15623;53.986;11.676;2022-09-02T20:09:59;1.65;;;1.10;;
15218;SDS011;15623;53.986;11.676;2022-09-02T20:12:43;1.63;;;1.23;;
15218;SDS011;15623;53.986;11.676;2022-09-02T20:21:00;1.10;;;1.00;;
15218;SDS011;15623;53.986;11.676;2022-09-02T20:23:42;1.38;;;1.10;;
15218;SDS011;15623;53.986;11.676;2022-09-02T20:31:52;2.10;;;1.00;;
15218;SDS011;15623;53.986;11.676;2022-09-02T20:34:36;1.80;;;0.90;;
15218;SDS011;15623;53.986;11.676;2022-09-02T20:58:58;1.25;;;1.15;;
15218;SDS011;15623;53.986;11.676;2022-09-02T21:01:38;1.52;;;1.02;;
15218;SDS011;15623;53.986;11.676;2022-09-02T22:01:25;1.20;;;0.82;;
15218;SDS011;15623;53.986;11.676;2022-09-02T22:06:43;1.58;;;1.00;;
15218;SDS011;15623;53.986;11.676;2022-09-02T22:09:27;1.25;;;0.90;;
15218;SDS011;15623;53.986;11.676;2022-09-02T22:14:42;0.90;;;0.90;;
15218;SDS011;15623;53.986;11.676;2022-09-02T22:17:42;1.07;;;0.87;;
15218;SDS011;15623;53.986;11.676;2022-09-02T22:20:26;0.90;;;0.90;;
15218;SDS011;15623;53.986;11.676;2022-09-02T22:23:05;1.87;;;0.90;;
15218;SDS011;15623;53.986;11.676;2022-09-02T22:25:34;1.80;;;1.00;;
15218;SDS011;15623;53.986;11.676;2022-09-02T22:28:17;0.90;;;0.90;;
15218;SDS011;15623;53.986;11.676;2022-09-02T22:31:14;0.97;;;0.90;;
15218;SDS011;15623;53.986;11.676;2022-09-02T22:33:54;1.10;;;1.10;;
15218;SDS011;15623;53.986;11.676;2022-09-02T22:39:15;1.97;;;1.00;;
15218;SDS011;15623;53.986;11.676;2022-09-02T22:44:52;1.20;;;1.10;;
15218;SDS011;15623;53.986;11.676;2022-09-02T22:47:49;4.73;;;1.13;;
15218;SDS011;15623;53.986;11.676;2022-09-02T22:56:41;1.38;;;0.88;;
15218;SDS011;15623;53.986;11.676;2022-09-02T23:02:39;1.67;;;1.10;;
15218;SDS011;15623;53.986;11.676;2022-09-02T23:05:47;1.57;;;1.07;;
15218;SDS011;15623;53.986;11.676;2022-09-02T23:08:35;0.90;;;0.90;;
15218;SDS011;15623;53.986;11.676;2022-09-02T23:44:53;1.08;;;0.98;;
15218;SDS011;15623;53.986;11.676;2022-09-02T23:47:55;0.87;;;0.83;;
15218;SDS011;15623;53.986;11.676;2022-09-02T23:53:29;1.35;;;1.20;;
15218;SDS011;15623;53.986;11.676;2022-09-02T23:59:49;0.93;;;0.90;;
